sensor_id;sensor_type;location;lat;lon;timestamp;temperature;humidity
212;DHT22;16228;48.800;9.002;2022-11-20T00:01:06;5.90;96.90
212;DHT22;16228;48.800;9.002;2022-11-20T00:03:34;5.90;96.90
212;DHT22;16228;48.800;9.002;2022-11-20T00:06:01;5.90;96.90
212;DHT22;16228;48.800;9.002;2022-11-20T00:08:29;5.90;96.90
212;DHT22;16228;48.800;9.002;2022-11-20T00:10:56;6.00;96.90
212;DHT22;16228;48.800;9.002;2022-11-20T00:13:23;6.00;96.90
212;DHT22;16228;48.800;9.002;2022-11-20T00:15:58;6.00;96.90
212;DHT22;16228;48.800;9.002;2022-11-20T00:18:25;6.10;96.90
212;DHT22;16228;48.800;9.002;2022-11-20T00:20:52;6.10;96.90
212;DHT22;16228;48.800;9.002;2022-11-20T00:23:19;6.10;96.90
212;DHT22;16228;48.800;9.002;2022-11-20T00:25:46;6.10;96.90
212;DHT22;16228;48.800;9.002;2022-11-20T00:28:13;6.20;96.90
212;DHT22;16228;48.800;9.002;2022-11-20T00:30:40;6.20;96.90
212;DHT22;16228;48.800;9.002;2022-11-20T00:33:09;6.20;96.90
212;DHT22;16228;48.800;9.002;2022-11-20T00:35:36;6.20;96.90
212;DHT22;16228;48.800;9.002;2022-11-20T00:38:03;6.20;96.90
212;DHT22;16228;48.800;9.002;2022-11-20T00:40:30;6.10;96.90
212;DHT22;16228;48.800;9.002;2022-11-20T00:42:57;6.10;96.90
212;DHT22;16228;48.800;9.002;2022-11-20T00:45:24;6.20;96.90
212;DHT22;16228;48.800;9.002;2022-11-20T00:47:51;6.30;96.90
212;DHT22;16228;48.800;9.002;2022-11-20T00:50:19;6.30;96.90
212;DHT22;16228;48.800;9.002;2022-11-20T00:52:46;6.30;96.90
212;DHT22;16228;48.800;9.002;2022-11-20T00:55:13;6.30;96.90
212;DHT22;16228;48.800;9.002;2022-11-20T00:57:40;6.30;96.90
212;DHT22;16228;48.800;9.002;2022-11-20T01:00:08;6.30;96.90
212;DHT22;16228;48.800;9.002;2022-11-20T01:02:35;6.30;96.90
212;DHT22;16228;48.800;9.002;2022-11-20T01:05:02;6.30;96.90
212;DHT22;16228;48.800;9.002;2022-11-20T01:07:32;6.30;96.90
212;DHT22;16228;48.800;9.002;2022-11-20T01:09:59;6.20;96.90
212;DHT22;16228;48.800;9.002;2022-11-20T01:12:25;6.20;96.90
212;DHT22;16228;48.800;9.002;2022-11-20T01:14:52;6.20;96.90
212;DHT22;16228;48.800;9.002;2022-11-20T01:17:19;6.20;96.90
212;DHT22;16228;48.800;9.002;2022-11-20T01:19:48;6.10;96.90
212;DHT22;16228;48.800;9.002;2022-11-20T01:22:15;6.20;96.90
212;DHT22;16228;48.800;9.002;2022-11-20T01:24:44;6.10;96.90
212;DHT22;16228;48.800;9.002;2022-11-20T01:27:11;6.10;96.90
212;DHT22;16228;48.800;9.002;2022-11-20T01:29:38;6.10;96.90
212;DHT22;16228;48.800;9.002;2022-11-20T01:32:05;6.10;96.90
212;DHT22;16228;48.800;9.002;2022-11-20T01:34:32;6.10;96.90
212;DHT22;16228;48.800;9.002;2022-11-20T01:36:59;6.10;96.90
212;DHT22;16228;48.800;9.002;2022-11-20T01:39:26;6.00;96.90
212;DHT22;16228;48.800;9.002;2022-11-20T01:41:55;6.00;96.90
212;DHT22;16228;48.800;9.002;2022-11-20T01:44:51;5.90;96.90
212;DHT22;16228;48.800;9.002;2022-11-20T01:47:23;5.90;96.90
212;DHT22;16228;48.800;9.002;2022-11-20T01:49:56;5.90;96.90
212;DHT22;16228;48.800;9.002;2022-11-20T01:52:27;5.80;96.90
212;DHT22;16228;48.800;9.002;2022-11-20T01:55:01;5.80;96.90
212;DHT22;16228;48.800;9.002;2022-11-20T01:57:31;5.80;96.90
212;DHT22;16228;48.800;9.002;2022-11-20T02:00:04;5.70;96.90
212;DHT22;16228;48.800;9.002;2022-11-20T02:02:31;5.70;96.90
212;DHT22;16228;48.800;9.002;2022-11-20T02:05:07;5.60;96.90
212;DHT22;16228;48.800;9.002;2022-11-20T02:07:36;5.60;96.90
212;DHT22;16228;48.800;9.002;2022-11-20T02:10:04;5.60;96.90
212;DHT22;16228;48.800;9.002;2022-11-20T02:12:33;5.50;96.90
212;DHT22;16228;48.800;9.002;2022-11-20T02:15:17;5.50;96.90
212;DHT22;16228;48.800;9.002;2022-11-20T02:17:44;5.40;96.90
212;DHT22;16228;48.800;9.002;2022-11-20T02:20:12;5.40;96.90
212;DHT22;16228;48.800;9.002;2022-11-20T02:22:45;5.40;96.90
212;DHT22;16228;48.800;9.002;2022-11-20T02:25:17;5.40;96.90
212;DHT22;16228;48.800;9.002;2022-11-20T02:27:45;5.40;96.90
212;DHT22;16228;48.800;9.002;2022-11-20T02:30:12;5.50;96.90
212;DHT22;16228;48.800;9.002;2022-11-20T02:32:39;5.50;96.90
212;DHT22;16228;48.800;9.002;2022-11-20T02:35:08;5.60;96.90
212;DHT22;16228;48.800;9.002;2022-11-20T02:37:38;5.70;96.90
212;DHT22;16228;48.800;9.002;2022-11-20T02:40:07;5.80;96.90
212;DHT22;16228;48.800;9.002;2022-11-20T02:42:36;5.80;96.90
212;DHT22;16228;48.800;9.002;2022-11-20T02:45:04;5.80;96.90
212;DHT22;16228;48.800;9.002;2022-11-20T02:47:31;5.80;96.90
212;DHT22;16228;48.800;9.002;2022-11-20T02:49:58;5.90;96.90
212;DHT22;16228;48.800;9.002;2022-11-20T02:52:25;6.00;96.90
212;DHT22;16228;48.800;9.002;2022-11-20T02:54:52;6.00;96.90
212;DHT22;16228;48.800;9.002;2022-11-20T02:57:19;6.00;96.90
212;DHT22;16228;48.800;9.002;2022-11-20T02:59:47;6.10;96.90
212;DHT22;16228;48.800;9.002;2022-11-20T03:02:14;6.10;96.90
212;DHT22;16228;48.800;9.002;2022-11-20T03:04:41;6.10;96.90
212;DHT22;16228;48.800;9.002;2022-11-20T03:07:09;6.10;96.90
212;DHT22;16228;48.800;9.002;2022-11-20T03:09:36;6.10;96.90
212;DHT22;16228;48.800;9.002;2022-11-20T03:12:03;6.10;96.90
212;DHT22;16228;48.800;9.002;2022-11-20T03:14:30;6.00;96.90
212;DHT22;16228;48.800;9.002;2022-11-20T03:16:59;6.00;96.90
212;DHT22;16228;48.800;9.002;2022-11-20T03:19:26;6.10;96.90
212;DHT22;16228;48.800;9.002;2022-11-20T03:21:53;6.00;96.90
212;DHT22;16228;48.800;9.002;2022-11-20T03:24:20;5.90;96.90
212;DHT22;16228;48.800;9.002;2022-11-20T03:26:47;5.80;96.90
212;DHT22;16228;48.800;9.002;2022-11-20T03:29:14;5.60;96.90
212;DHT22;16228;48.800;9.002;2022-11-20T03:31:41;5.50;96.90
212;DHT22;16228;48.800;9.002;2022-11-20T03:34:10;5.40;96.90
212;DHT22;16228;48.800;9.002;2022-11-20T03:36:38;5.40;96.90
212;DHT22;16228;48.800;9.002;2022-11-20T03:39:06;5.30;96.90
212;DHT22;16228;48.800;9.002;2022-11-20T03:41:37;5.20;96.90
212;DHT22;16228;48.800;9.002;2022-11-20T03:44:06;5.20;96.90
212;DHT22;16228;48.800;9.002;2022-11-20T03:46:33;5.10;96.90
212;DHT22;16228;48.800;9.002;2022-11-20T03:49:01;5.10;96.90
212;DHT22;16228;48.800;9.002;2022-11-20T03:51:31;5.10;96.90
212;DHT22;16228;48.800;9.002;2022-11-20T03:54:00;5.00;96.90
212;DHT22;16228;48.800;9.002;2022-11-20T03:56:28;4.90;96.90
212;DHT22;16228;48.800;9.002;2022-11-20T03:58:56;4.90;96.90
212;DHT22;16228;48.800;9.002;2022-11-20T04:01:25;5.00;96.90
212;DHT22;16228;48.800;9.002;2022-11-20T04:03:53;5.00;96.90
212;DHT22;16228;48.800;9.002;2022-11-20T04:06:22;5.00;96.90
212;DHT22;16228;48.800;9.002;2022-11-20T04:08:51;5.00;96.90
212;DHT22;16228;48.800;9.002;2022-11-20T04:11:22;5.00;96.90
212;DHT22;16228;48.800;9.002;2022-11-20T04:13:50;5.00;96.90
212;DHT22;16228;48.800;9.002;2022-11-20T04:16:18;4.90;96.90
212;DHT22;16228;48.800;9.002;2022-11-20T04:18:46;4.90;96.90
212;DHT22;16228;48.800;9.002;2022-11-20T04:21:12;5.00;96.90
212;DHT22;16228;48.800;9.002;2022-11-20T04:23:39;5.00;96.90
212;DHT22;16228;48.800;9.002;2022-11-20T04:26:10;5.10;96.90
212;DHT22;16228;48.800;9.002;2022-11-20T04:28:37;5.10;96.90
212;DHT22;16228;48.800;9.002;2022-11-20T04:31:06;5.10;96.90
212;DHT22;16228;48.800;9.002;2022-11-20T04:33:34;5.20;96.90
212;DHT22;16228;48.800;9.002;2022-11-20T04:36:03;5.30;96.90
212;DHT22;16228;48.800;9.002;2022-11-20T04:38:31;5.30;96.90
212;DHT22;16228;48.800;9.002;2022-11-20T04:40:58;5.40;96.90
212;DHT22;16228;48.800;9.002;2022-11-20T04:43:27;5.40;96.90
212;DHT22;16228;48.800;9.002;2022-11-20T04:45:54;5.50;96.90
212;DHT22;16228;48.800;9.002;2022-11-20T04:48:21;5.50;96.90
212;DHT22;16228;48.800;9.002;2022-11-20T04:50:48;5.60;96.90
212;DHT22;16228;48.800;9.002;2022-11-20T04:53:15;5.60;96.90
212;DHT22;16228;48.800;9.002;2022-11-20T04:55:42;5.70;96.90
212;DHT22;16228;48.800;9.002;2022-11-20T04:58:09;5.70;96.90
212;DHT22;16228;48.800;9.002;2022-11-20T05:00:38;5.70;96.90
212;DHT22;16228;48.800;9.002;2022-11-20T05:03:05;5.70;96.90
212;DHT22;16228;48.800;9.002;2022-11-20T05:05:33;5.70;96.90
212;DHT22;16228;48.800;9.002;2022-11-20T05:08:01;5.70;96.90
212;DHT22;16228;48.800;9.002;2022-11-20T05:10:28;5.70;96.90
212;DHT22;16228;48.800;9.002;2022-11-20T05:12:56;5.80;96.90
212;DHT22;16228;48.800;9.002;2022-11-20T05:15:23;5.80;96.90
212;DHT22;16228;48.800;9.002;2022-11-20T05:17:52;5.80;96.90
212;DHT22;16228;48.800;9.002;2022-11-20T05:20:19;5.80;96.90
212;DHT22;16228;48.800;9.002;2022-11-20T05:22:47;5.80;96.90
212;DHT22;16228;48.800;9.002;2022-11-20T05:25:14;5.80;96.90
212;DHT22;16228;48.800;9.002;2022-11-20T05:27:41;5.90;96.90
212;DHT22;16228;48.800;9.002;2022-11-20T05:30:09;5.90;96.90
212;DHT22;16228;48.800;9.002;2022-11-20T05:32:36;5.90;96.90
212;DHT22;16228;48.800;9.002;2022-11-20T05:35:05;6.00;96.90
212;DHT22;16228;48.800;9.002;2022-11-20T05:37:32;6.00;96.90
212;DHT22;16228;48.800;9.002;2022-11-20T05:39:59;6.00;96.90
212;DHT22;16228;48.800;9.002;2022-11-20T05:42:29;6.00;96.90
212;DHT22;16228;48.800;9.002;2022-11-20T05:44:56;6.00;96.90
212;DHT22;16228;48.800;9.002;2022-11-20T05:47:24;6.00;96.90
212;DHT22;16228;48.800;9.002;2022-11-20T05:49:51;6.00;96.90
212;DHT22;16228;48.800;9.002;2022-11-20T05:52:19;6.00;96.90
212;DHT22;16228;48.800;9.002;2022-11-20T05:54:46;6.00;96.90
212;DHT22;16228;48.800;9.002;2022-11-20T05:57:13;6.10;96.90
212;DHT22;16228;48.800;9.002;2022-11-20T05:59:40;6.10;96.90
212;DHT22;16228;48.800;9.002;2022-11-20T06:02:07;6.10;96.90
212;DHT22;16228;48.800;9.002;2022-11-20T06:04:34;6.10;96.90
212;DHT22;16228;48.800;9.002;2022-11-20T06:07:01;6.10;96.90
212;DHT22;16228;48.800;9.002;2022-11-20T06:09:29;6.20;96.90
212;DHT22;16228;48.800;9.002;2022-11-20T06:11:56;6.20;96.90
212;DHT22;16228;48.800;9.002;2022-11-20T06:14:23;6.30;96.90
212;DHT22;16228;48.800;9.002;2022-11-20T06:16:50;6.30;96.90
212;DHT22;16228;48.800;9.002;2022-11-20T06:19:17;6.30;96.90
212;DHT22;16228;48.800;9.002;2022-11-20T06:21:44;6.20;96.90
212;DHT22;16228;48.800;9.002;2022-11-20T06:24:11;6.20;96.90
212;DHT22;16228;48.800;9.002;2022-11-20T06:26:40;6.20;96.90
212;DHT22;16228;48.800;9.002;2022-11-20T06:29:07;6.10;96.90
212;DHT22;16228;48.800;9.002;2022-11-20T06:31:34;6.10;96.90
212;DHT22;16228;48.800;9.002;2022-11-20T06:34:03;6.10;96.90
212;DHT22;16228;48.800;9.002;2022-11-20T06:36:30;6.10;96.90
212;DHT22;16228;48.800;9.002;2022-11-20T06:38:57;6.10;96.90
212;DHT22;16228;48.800;9.002;2022-11-20T06:41:24;6.10;96.90
212;DHT22;16228;48.800;9.002;2022-11-20T06:43:53;6.10;96.90
212;DHT22;16228;48.800;9.002;2022-11-20T06:46:20;6.10;96.90
212;DHT22;16228;48.800;9.002;2022-11-20T06:48:48;6.10;96.90
212;DHT22;16228;48.800;9.002;2022-11-20T06:51:16;6.10;96.90
212;DHT22;16228;48.800;9.002;2022-11-20T06:53:43;6.00;96.90
212;DHT22;16228;48.800;9.002;2022-11-20T06:56:10;6.00;96.90
212;DHT22;16228;48.800;9.002;2022-11-20T06:58:37;6.00;96.90
212;DHT22;16228;48.800;9.002;2022-11-20T07:01:07;6.10;96.90
212;DHT22;16228;48.800;9.002;2022-11-20T07:03:34;6.20;96.90
212;DHT22;16228;48.800;9.002;2022-11-20T07:06:01;6.20;96.90
212;DHT22;16228;48.800;9.002;2022-11-20T07:08:29;6.20;96.90
212;DHT22;16228;48.800;9.002;2022-11-20T07:10:58;6.20;96.90
212;DHT22;16228;48.800;9.002;2022-11-20T07:13:26;6.20;96.90
212;DHT22;16228;48.800;9.002;2022-11-20T07:15:53;6.20;96.90
212;DHT22;16228;48.800;9.002;2022-11-20T07:18:21;6.30;96.90
212;DHT22;16228;48.800;9.002;2022-11-20T07:20:48;6.40;96.90
212;DHT22;16228;48.800;9.002;2022-11-20T07:23:15;6.40;96.90
212;DHT22;16228;48.800;9.002;2022-11-20T07:25:42;6.40;96.90
212;DHT22;16228;48.800;9.002;2022-11-20T07:28:09;6.40;96.90
212;DHT22;16228;48.800;9.002;2022-11-20T07:30:37;6.40;96.90
212;DHT22;16228;48.800;9.002;2022-11-20T07:33:04;6.40;96.90
212;DHT22;16228;48.800;9.002;2022-11-20T07:35:33;6.40;96.90
212;DHT22;16228;48.800;9.002;2022-11-20T07:38:01;6.50;96.90
212;DHT22;16228;48.800;9.002;2022-11-20T07:40:28;6.50;96.90
212;DHT22;16228;48.800;9.002;2022-11-20T07:42:55;6.70;96.90
212;DHT22;16228;48.800;9.002;2022-11-20T07:45:23;6.90;96.90
212;DHT22;16228;48.800;9.002;2022-11-20T07:47:50;7.00;96.90
212;DHT22;16228;48.800;9.002;2022-11-20T07:50:18;7.20;96.90
212;DHT22;16228;48.800;9.002;2022-11-20T07:52:46;7.40;96.90
212;DHT22;16228;48.800;9.002;2022-11-20T07:55:14;7.60;96.90
212;DHT22;16228;48.800;9.002;2022-11-20T07:57:41;7.70;96.90
212;DHT22;16228;48.800;9.002;2022-11-20T08:00:10;7.70;96.90
212;DHT22;16228;48.800;9.002;2022-11-20T08:02:38;7.80;96.90
212;DHT22;16228;48.800;9.002;2022-11-20T08:05:06;7.90;96.90
212;DHT22;16228;48.800;9.002;2022-11-20T08:07:36;7.90;96.90
212;DHT22;16228;48.800;9.002;2022-11-20T08:10:05;7.80;96.90
212;DHT22;16228;48.800;9.002;2022-11-20T08:12:32;7.70;96.90
212;DHT22;16228;48.800;9.002;2022-11-20T08:15:17;7.60;96.90
212;DHT22;16228;48.800;9.002;2022-11-20T08:17:44;7.60;96.90
212;DHT22;16228;48.800;9.002;2022-11-20T08:20:11;7.60;96.90
212;DHT22;16228;48.800;9.002;2022-11-20T08:22:38;7.50;96.90
212;DHT22;16228;48.800;9.002;2022-11-20T08:25:07;7.50;96.90
212;DHT22;16228;48.800;9.002;2022-11-20T08:27:34;7.50;96.90
212;DHT22;16228;48.800;9.002;2022-11-20T08:30:01;7.60;96.90
212;DHT22;16228;48.800;9.002;2022-11-20T08:32:30;7.80;96.90
212;DHT22;16228;48.800;9.002;2022-11-20T08:34:57;8.00;96.90
212;DHT22;16228;48.800;9.002;2022-11-20T08:37:24;8.10;96.90
212;DHT22;16228;48.800;9.002;2022-11-20T08:39:51;8.20;96.90
212;DHT22;16228;48.800;9.002;2022-11-20T08:42:20;8.30;96.90
212;DHT22;16228;48.800;9.002;2022-11-20T08:44:47;8.40;96.90
212;DHT22;16228;48.800;9.002;2022-11-20T08:47:14;8.50;96.90
212;DHT22;16228;48.800;9.002;2022-11-20T08:49:41;8.60;96.90
212;DHT22;16228;48.800;9.002;2022-11-20T08:52:08;8.70;96.90
212;DHT22;16228;48.800;9.002;2022-11-20T08:54:35;8.80;96.90
212;DHT22;16228;48.800;9.002;2022-11-20T08:57:02;8.80;96.90
212;DHT22;16228;48.800;9.002;2022-11-20T08:59:30;8.70;96.90
212;DHT22;16228;48.800;9.002;2022-11-20T09:01:58;8.70;96.90
212;DHT22;16228;48.800;9.002;2022-11-20T09:04:25;8.60;96.90
212;DHT22;16228;48.800;9.002;2022-11-20T09:06:52;8.60;96.90
212;DHT22;16228;48.800;9.002;2022-11-20T09:09:19;8.70;96.90
212;DHT22;16228;48.800;9.002;2022-11-20T09:11:45;8.80;96.90
212;DHT22;16228;48.800;9.002;2022-11-20T09:14:12;8.80;96.90
212;DHT22;16228;48.800;9.002;2022-11-20T09:16:41;8.80;96.90
212;DHT22;16228;48.800;9.002;2022-11-20T09:19:08;8.80;96.90
212;DHT22;16228;48.800;9.002;2022-11-20T09:21:35;8.70;96.90
212;DHT22;16228;48.800;9.002;2022-11-20T09:24:02;8.60;96.90
212;DHT22;16228;48.800;9.002;2022-11-20T09:26:29;8.60;96.90
212;DHT22;16228;48.800;9.002;2022-11-20T09:28:56;8.60;96.90
212;DHT22;16228;48.800;9.002;2022-11-20T09:31:24;8.50;96.90
212;DHT22;16228;48.800;9.002;2022-11-20T09:33:53;8.40;96.90
212;DHT22;16228;48.800;9.002;2022-11-20T09:36:20;8.30;96.90
212;DHT22;16228;48.800;9.002;2022-11-20T09:38:47;8.30;96.90
212;DHT22;16228;48.800;9.002;2022-11-20T09:41:36;8.30;96.90
212;DHT22;16228;48.800;9.002;2022-11-20T09:44:20;8.30;96.90
212;DHT22;16228;48.800;9.002;2022-11-20T09:46:55;8.20;96.90
212;DHT22;16228;48.800;9.002;2022-11-20T09:49:35;8.10;96.90
212;DHT22;16228;48.800;9.002;2022-11-20T09:52:16;8.00;96.90
212;DHT22;16228;48.800;9.002;2022-11-20T09:54:46;7.90;96.90
212;DHT22;16228;48.800;9.002;2022-11-20T09:57:17;8.00;96.90
212;DHT22;16228;48.800;9.002;2022-11-20T09:59:48;7.90;96.90
212;DHT22;16228;48.800;9.002;2022-11-20T10:02:23;7.90;96.90
212;DHT22;16228;48.800;9.002;2022-11-20T10:04:57;7.80;96.90
212;DHT22;16228;48.800;9.002;2022-11-20T10:07:30;7.70;96.90
212;DHT22;16228;48.800;9.002;2022-11-20T10:10:00;7.70;96.90
212;DHT22;16228;48.800;9.002;2022-11-20T10:12:36;7.80;96.90
212;DHT22;16228;48.800;9.002;2022-11-20T10:15:16;7.90;96.90
212;DHT22;16228;48.800;9.002;2022-11-20T10:17:59;7.90;96.90
212;DHT22;16228;48.800;9.002;2022-11-20T10:20:41;7.80;96.90
212;DHT22;16228;48.800;9.002;2022-11-20T10:26:17;7.60;96.90
212;DHT22;16228;48.800;9.002;2022-11-20T10:28:56;7.60;96.90
212;DHT22;16228;48.800;9.002;2022-11-20T10:31:32;7.70;96.90
212;DHT22;16228;48.800;9.002;2022-11-20T10:34:03;7.70;96.90
212;DHT22;16228;48.800;9.002;2022-11-20T10:36:36;7.80;96.90
212;DHT22;16228;48.800;9.002;2022-11-20T10:39:10;7.80;96.90
212;DHT22;16228;48.800;9.002;2022-11-20T10:41:41;7.80;96.90
212;DHT22;16228;48.800;9.002;2022-11-20T10:44:11;7.90;96.90
212;DHT22;16228;48.800;9.002;2022-11-20T10:46:43;7.90;96.90
212;DHT22;16228;48.800;9.002;2022-11-20T10:49:15;8.00;96.90
212;DHT22;16228;48.800;9.002;2022-11-20T10:51:56;8.10;96.90
212;DHT22;16228;48.800;9.002;2022-11-20T10:54:34;8.20;96.90
212;DHT22;16228;48.800;9.002;2022-11-20T10:57:10;8.20;96.90
212;DHT22;16228;48.800;9.002;2022-11-20T10:59:54;8.30;96.90
212;DHT22;16228;48.800;9.002;2022-11-20T11:02:24;8.30;96.90
212;DHT22;16228;48.800;9.002;2022-11-20T11:05:00;8.20;96.90
212;DHT22;16228;48.800;9.002;2022-11-20T11:07:36;8.20;96.90
212;DHT22;16228;48.800;9.002;2022-11-20T11:10:15;8.10;96.90
212;DHT22;16228;48.800;9.002;2022-11-20T11:12:44;8.20;96.90
212;DHT22;16228;48.800;9.002;2022-11-20T11:15:24;8.40;96.90
212;DHT22;16228;48.800;9.002;2022-11-20T11:17:52;9.20;96.90
212;DHT22;16228;48.800;9.002;2022-11-20T11:20:21;10.60;96.90
212;DHT22;16228;48.800;9.002;2022-11-20T11:22:51;13.30;96.90
212;DHT22;16228;48.800;9.002;2022-11-20T11:25:25;16.20;96.90
212;DHT22;16228;48.800;9.002;2022-11-20T11:27:54;18.40;96.90
212;DHT22;16228;48.800;9.002;2022-11-20T11:30:23;18.80;92.70
212;DHT22;16228;48.800;9.002;2022-11-20T11:32:50;17.90;93.30
212;DHT22;16228;48.800;9.002;2022-11-20T11:35:23;16.60;94.10
212;DHT22;16228;48.800;9.002;2022-11-20T11:37:53;15.30;96.90
212;DHT22;16228;48.800;9.002;2022-11-20T11:40:21;14.80;96.90
212;DHT22;16228;48.800;9.002;2022-11-20T11:42:58;16.00;96.90
212;DHT22;16228;48.800;9.002;2022-11-20T11:45:26;17.60;95.10
212;DHT22;16228;48.800;9.002;2022-11-20T11:47:54;17.60;93.30
212;DHT22;16228;48.800;9.002;2022-11-20T11:50:23;17.40;94.10
212;DHT22;16228;48.800;9.002;2022-11-20T11:52:58;17.70;93.70
212;DHT22;16228;48.800;9.002;2022-11-20T11:55:32;17.60;92.00
212;DHT22;16228;48.800;9.002;2022-11-20T11:58:08;18.00;91.80
212;DHT22;16228;48.800;9.002;2022-11-20T12:00:37;18.80;88.90
212;DHT22;16228;48.800;9.002;2022-11-20T12:03:13;19.00;85.30
212;DHT22;16228;48.800;9.002;2022-11-20T12:05:43;18.20;84.20
212;DHT22;16228;48.800;9.002;2022-11-20T12:08:17;17.40;86.00
212;DHT22;16228;48.800;9.002;2022-11-20T12:10:50;17.20;87.50
212;DHT22;16228;48.800;9.002;2022-11-20T12:13:25;17.70;87.60
212;DHT22;16228;48.800;9.002;2022-11-20T12:15:55;17.40;87.90
212;DHT22;16228;48.800;9.002;2022-11-20T12:18:22;16.30;87.90
212;DHT22;16228;48.800;9.002;2022-11-20T12:20:59;15.20;90.10
212;DHT22;16228;48.800;9.002;2022-11-20T12:23:35;15.40;91.40
212;DHT22;16228;48.800;9.002;2022-11-20T12:26:17;16.00;88.10
212;DHT22;16228;48.800;9.002;2022-11-20T12:28:54;16.40;86.90
212;DHT22;16228;48.800;9.002;2022-11-20T12:34:23;18.40;84.80
212;DHT22;16228;48.800;9.002;2022-11-20T12:36:59;19.40;81.40
212;DHT22;16228;48.800;9.002;2022-11-20T12:39:41;19.70;80.70
212;DHT22;16228;48.800;9.002;2022-11-20T12:42:20;20.60;79.60
212;DHT22;16228;48.800;9.002;2022-11-20T12:51:47;17.70;80.80
212;DHT22;16228;48.800;9.002;2022-11-20T12:54:37;16.70;84.10
212;DHT22;16228;48.800;9.002;2022-11-20T12:57:14;15.80;86.40
212;DHT22;16228;48.800;9.002;2022-11-20T13:00:01;15.10;89.60
212;DHT22;16228;48.800;9.002;2022-11-20T13:02:37;15.60;88.60
212;DHT22;16228;48.800;9.002;2022-11-20T13:05:31;16.30;87.40
212;DHT22;16228;48.800;9.002;2022-11-20T13:08:03;17.20;84.30
212;DHT22;16228;48.800;9.002;2022-11-20T13:10:35;17.50;82.60
212;DHT22;16228;48.800;9.002;2022-11-20T13:13:14;17.40;82.40
212;DHT22;16228;48.800;9.002;2022-11-20T13:15:50;17.50;81.00
212;DHT22;16228;48.800;9.002;2022-11-20T13:18:19;17.50;82.80
212;DHT22;16228;48.800;9.002;2022-11-20T13:20:46;16.60;82.00
212;DHT22;16228;48.800;9.002;2022-11-20T13:23:23;16.30;83.40
212;DHT22;16228;48.800;9.002;2022-11-20T13:25:52;15.80;83.70
212;DHT22;16228;48.800;9.002;2022-11-20T13:28:31;15.60;84.20
212;DHT22;16228;48.800;9.002;2022-11-20T13:30:58;15.00;86.60
212;DHT22;16228;48.800;9.002;2022-11-20T13:33:29;14.40;88.20
212;DHT22;16228;48.800;9.002;2022-11-20T13:36:00;13.50;89.50
212;DHT22;16228;48.800;9.002;2022-11-20T13:38:28;12.90;93.20
212;DHT22;16228;48.800;9.002;2022-11-20T13:40:56;12.70;94.40
212;DHT22;16228;48.800;9.002;2022-11-20T13:43:35;12.10;94.30
212;DHT22;16228;48.800;9.002;2022-11-20T13:46:05;11.50;95.70
212;DHT22;16228;48.800;9.002;2022-11-20T13:48:38;10.80;96.90
212;DHT22;16228;48.800;9.002;2022-11-20T13:51:25;10.40;96.90
212;DHT22;16228;48.800;9.002;2022-11-20T13:54:14;9.90;96.90
212;DHT22;16228;48.800;9.002;2022-11-20T13:56:54;9.60;96.90
212;DHT22;16228;48.800;9.002;2022-11-20T13:59:47;9.40;96.90
212;DHT22;16228;48.800;9.002;2022-11-20T14:02:17;9.40;96.90
212;DHT22;16228;48.800;9.002;2022-11-20T14:04:46;9.30;96.90
212;DHT22;16228;48.800;9.002;2022-11-20T14:07:14;9.40;96.90
212;DHT22;16228;48.800;9.002;2022-11-20T14:09:50;9.40;96.90
212;DHT22;16228;48.800;9.002;2022-11-20T14:12:19;9.30;96.90
212;DHT22;16228;48.800;9.002;2022-11-20T14:14:52;9.40;96.90
212;DHT22;16228;48.800;9.002;2022-11-20T14:17:21;9.40;96.90
212;DHT22;16228;48.800;9.002;2022-11-20T14:19:50;9.50;96.90
212;DHT22;16228;48.800;9.002;2022-11-20T14:22:20;9.40;96.90
212;DHT22;16228;48.800;9.002;2022-11-20T14:24:48;9.30;96.90
212;DHT22;16228;48.800;9.002;2022-11-20T14:27:17;9.30;96.90
212;DHT22;16228;48.800;9.002;2022-11-20T14:29:46;9.10;96.90
212;DHT22;16228;48.800;9.002;2022-11-20T14:32:17;9.10;96.90
212;DHT22;16228;48.800;9.002;2022-11-20T14:34:47;9.10;96.90
212;DHT22;16228;48.800;9.002;2022-11-20T14:37:19;9.00;96.90
212;DHT22;16228;48.800;9.002;2022-11-20T14:39:50;9.00;96.90
212;DHT22;16228;48.800;9.002;2022-11-20T14:42:19;9.00;96.90
212;DHT22;16228;48.800;9.002;2022-11-20T14:44:48;8.90;96.90
212;DHT22;16228;48.800;9.002;2022-11-20T14:47:21;8.90;96.90
212;DHT22;16228;48.800;9.002;2022-11-20T14:49:49;8.90;96.90
212;DHT22;16228;48.800;9.002;2022-11-20T14:52:21;8.90;96.90
212;DHT22;16228;48.800;9.002;2022-11-20T14:54:50;8.90;96.90
212;DHT22;16228;48.800;9.002;2022-11-20T14:57:23;8.80;96.90
212;DHT22;16228;48.800;9.002;2022-11-20T14:59:51;8.80;96.90
212;DHT22;16228;48.800;9.002;2022-11-20T15:02:19;8.70;96.90
212;DHT22;16228;48.800;9.002;2022-11-20T15:04:47;8.60;96.90
212;DHT22;16228;48.800;9.002;2022-11-20T15:07:23;8.50;96.90
212;DHT22;16228;48.800;9.002;2022-11-20T15:10:03;8.40;96.90
212;DHT22;16228;48.800;9.002;2022-11-20T15:12:30;8.30;96.90
212;DHT22;16228;48.800;9.002;2022-11-20T15:14:58;8.20;96.90
212;DHT22;16228;48.800;9.002;2022-11-20T15:17:27;8.10;96.90
212;DHT22;16228;48.800;9.002;2022-11-20T15:19:55;8.10;96.90
212;DHT22;16228;48.800;9.002;2022-11-20T15:22:22;8.00;96.90
212;DHT22;16228;48.800;9.002;2022-11-20T15:24:49;8.00;96.90
212;DHT22;16228;48.800;9.002;2022-11-20T15:27:16;7.80;96.90
212;DHT22;16228;48.800;9.002;2022-11-20T15:29:43;7.80;96.90
212;DHT22;16228;48.800;9.002;2022-11-20T15:32:10;7.70;96.90
212;DHT22;16228;48.800;9.002;2022-11-20T15:34:38;7.60;96.90
212;DHT22;16228;48.800;9.002;2022-11-20T15:37:05;7.60;96.90
212;DHT22;16228;48.800;9.002;2022-11-20T15:39:32;7.60;96.90
212;DHT22;16228;48.800;9.002;2022-11-20T15:41:59;7.50;96.90
212;DHT22;16228;48.800;9.002;2022-11-20T15:44:26;7.40;96.90
212;DHT22;16228;48.800;9.002;2022-11-20T15:46:53;7.40;96.90
212;DHT22;16228;48.800;9.002;2022-11-20T15:49:20;7.30;96.90
212;DHT22;16228;48.800;9.002;2022-11-20T15:51:50;7.30;96.90
212;DHT22;16228;48.800;9.002;2022-11-20T15:54:21;7.30;96.90
212;DHT22;16228;48.800;9.002;2022-11-20T15:56:49;7.20;96.90
212;DHT22;16228;48.800;9.002;2022-11-20T15:59:18;7.20;96.90
212;DHT22;16228;48.800;9.002;2022-11-20T16:01:45;7.20;96.90
212;DHT22;16228;48.800;9.002;2022-11-20T16:04:13;7.20;96.90
212;DHT22;16228;48.800;9.002;2022-11-20T16:06:40;7.20;96.90
212;DHT22;16228;48.800;9.002;2022-11-20T16:09:09;7.20;96.90
212;DHT22;16228;48.800;9.002;2022-11-20T16:11:36;7.20;96.90
212;DHT22;16228;48.800;9.002;2022-11-20T16:14:03;7.20;96.90
212;DHT22;16228;48.800;9.002;2022-11-20T16:16:48;7.20;96.90
212;DHT22;16228;48.800;9.002;2022-11-20T16:19:15;7.20;96.90
212;DHT22;16228;48.800;9.002;2022-11-20T16:21:43;7.20;96.90
212;DHT22;16228;48.800;9.002;2022-11-20T16:24:13;7.20;96.90
212;DHT22;16228;48.800;9.002;2022-11-20T16:26:41;7.20;96.90
212;DHT22;16228;48.800;9.002;2022-11-20T16:29:08;7.10;96.90
212;DHT22;16228;48.800;9.002;2022-11-20T16:31:35;7.10;96.90
212;DHT22;16228;48.800;9.002;2022-11-20T16:34:05;7.10;96.90
212;DHT22;16228;48.800;9.002;2022-11-20T16:36:33;7.10;96.90
212;DHT22;16228;48.800;9.002;2022-11-20T16:39:02;7.10;96.90
212;DHT22;16228;48.800;9.002;2022-11-20T16:41:32;7.10;96.90
212;DHT22;16228;48.800;9.002;2022-11-20T16:44:01;7.20;96.90